sensor_id;sensor_type;location;lat;lon;timestamp;P1;durP1;ratioP1;P2;durP2;ratioP2
26536;SDS011;14204;51.262;5.488;2022-07-04T00:00:29;3.88;;;1.92;;
26536;SDS011;14204;51.262;5.488;2022-07-04T00:02:54;4.88;;;2.55;;
26536;SDS011;14204;51.262;5.488;2022-07-04T00:05:20;2.25;;;1.95;;
26536;SDS011;14204;51.262;5.488;2022-07-04T00:07:47;10.73;;;2.20;;
26536;SDS011;14204;51.262;5.488;2022-07-04T00:10:15;4.30;;;2.00;;
26536;SDS011;14204;51.262;5.488;2022-07-04T00:12:42;3.70;;;2.42;;
26536;SDS011;14204;51.262;5.488;2022-07-04T00:15:09;3.42;;;2.38;;
26536;SDS011;14204;51.262;5.488;2022-07-04T00:17:35;7.13;;;2.33;;
26536;SDS011;14204;51.262;5.488;2022-07-04T00:20:01;5.93;;;2.58;;
26536;SDS011;14204;51.262;5.488;2022-07-04T00:22:28;4.45;;;2.60;;
26536;SDS011;14204;51.262;5.488;2022-07-04T00:24:53;7.30;;;2.85;;
26536;SDS011;14204;51.262;5.488;2022-07-04T00:27:19;4.22;;;2.60;;
26536;SDS011;14204;51.262;5.488;2022-07-04T00:29:45;2.78;;;2.47;;
26536;SDS011;14204;51.262;5.488;2022-07-04T00:32:10;4.20;;;2.58;;
26536;SDS011;14204;51.262;5.488;2022-07-04T00:34:36;3.72;;;2.20;;
26536;SDS011;14204;51.262;5.488;2022-07-04T00:37:02;2.55;;;2.25;;
26536;SDS011;14204;51.262;5.488;2022-07-04T00:39:28;3.60;;;2.90;;
26536;SDS011;14204;51.262;5.488;2022-07-04T00:41:54;2.83;;;2.53;;
26536;SDS011;14204;51.262;5.488;2022-07-04T00:44:19;4.05;;;2.65;;
26536;SDS011;14204;51.262;5.488;2022-07-04T00:46:45;3.35;;;2.40;;
26536;SDS011;14204;51.262;5.488;2022-07-04T00:49:12;3.05;;;2.50;;
26536;SDS011;14204;51.262;5.488;2022-07-04T00:51:40;2.80;;;2.50;;
26536;SDS011;14204;51.262;5.488;2022-07-04T00:54:07;3.70;;;3.00;;
26536;SDS011;14204;51.262;5.488;2022-07-04T00:56:36;2.95;;;2.30;;
26536;SDS011;14204;51.262;5.488;2022-07-04T00:59:02;2.42;;;2.22;;
26536;SDS011;14204;51.262;5.488;2022-07-04T01:01:28;5.80;;;2.80;;
26536;SDS011;14204;51.262;5.488;2022-07-04T01:03:54;4.43;;;3.00;;
26536;SDS011;14204;51.262;5.488;2022-07-04T01:06:21;3.33;;;3.00;;
26536;SDS011;14204;51.262;5.488;2022-07-04T01:08:47;3.83;;;2.75;;
26536;SDS011;14204;51.262;5.488;2022-07-04T01:11:13;2.60;;;2.40;;
26536;SDS011;14204;51.262;5.488;2022-07-04T01:13:39;6.13;;;2.67;;
26536;SDS011;14204;51.262;5.488;2022-07-04T01:16:06;4.30;;;2.40;;
26536;SDS011;14204;51.262;5.488;2022-07-04T01:18:32;4.78;;;2.63;;
26536;SDS011;14204;51.262;5.488;2022-07-04T01:20:58;2.40;;;1.95;;
26536;SDS011;14204;51.262;5.488;2022-07-04T01:23:24;2.53;;;2.33;;
26536;SDS011;14204;51.262;5.488;2022-07-04T01:25:50;3.10;;;2.78;;
26536;SDS011;14204;51.262;5.488;2022-07-04T01:28:23;2.60;;;2.40;;
26536;SDS011;14204;51.262;5.488;2022-07-04T01:30:49;3.22;;;2.63;;
26536;SDS011;14204;51.262;5.488;2022-07-04T01:33:16;2.55;;;1.92;;
26536;SDS011;14204;51.262;5.488;2022-07-04T01:35:45;2.15;;;1.65;;
26536;SDS011;14204;51.262;5.488;2022-07-04T01:38:11;3.08;;;1.90;;
26536;SDS011;14204;51.262;5.488;2022-07-04T01:40:37;4.07;;;2.17;;
26536;SDS011;14204;51.262;5.488;2022-07-04T01:43:03;3.47;;;2.30;;
26536;SDS011;14204;51.262;5.488;2022-07-04T01:45:28;2.53;;;2.25;;
26536;SDS011;14204;51.262;5.488;2022-07-04T01:47:54;3.75;;;2.50;;
26536;SDS011;14204;51.262;5.488;2022-07-04T01:50:20;4.07;;;2.30;;
26536;SDS011;14204;51.262;5.488;2022-07-04T01:52:46;4.25;;;2.45;;
26536;SDS011;14204;51.262;5.488;2022-07-04T01:55:11;3.20;;;2.42;;
26536;SDS011;14204;51.262;5.488;2022-07-04T01:57:38;2.70;;;2.50;;
26536;SDS011;14204;51.262;5.488;2022-07-04T02:00:07;3.80;;;2.90;;
26536;SDS011;14204;51.262;5.488;2022-07-04T02:02:53;3.70;;;2.97;;
26536;SDS011;14204;51.262;5.488;2022-07-04T02:05:20;2.92;;;2.72;;
26536;SDS011;14204;51.262;5.488;2022-07-04T02:07:47;3.90;;;2.45;;
26536;SDS011;14204;51.262;5.488;2022-07-04T02:10:13;2.88;;;2.67;;
26536;SDS011;14204;51.262;5.488;2022-07-04T02:12:39;3.10;;;2.45;;
26536;SDS011;14204;51.262;5.488;2022-07-04T02:15:23;2.78;;;2.13;;
26536;SDS011;14204;51.262;5.488;2022-07-04T02:17:49;3.75;;;2.53;;
26536;SDS011;14204;51.262;5.488;2022-07-04T02:20:15;5.32;;;3.15;;
26536;SDS011;14204;51.262;5.488;2022-07-04T02:22:41;4.10;;;2.67;;
26536;SDS011;14204;51.262;5.488;2022-07-04T02:25:07;2.83;;;2.63;;
26536;SDS011;14204;51.262;5.488;2022-07-04T02:27:32;4.78;;;2.92;;
26536;SDS011;14204;51.262;5.488;2022-07-04T02:29:58;3.75;;;3.13;;
26536;SDS011;14204;51.262;5.488;2022-07-04T02:32:24;4.55;;;3.10;;
26536;SDS011;14204;51.262;5.488;2022-07-04T02:34:49;4.70;;;3.15;;
26536;SDS011;14204;51.262;5.488;2022-07-04T02:37:16;6.03;;;2.78;;
26536;SDS011;14204;51.262;5.488;2022-07-04T02:39:42;3.53;;;3.22;;
26536;SDS011;14204;51.262;5.488;2022-07-04T02:42:08;3.42;;;3.13;;
26536;SDS011;14204;51.262;5.488;2022-07-04T02:44:33;3.40;;;2.90;;
26536;SDS011;14204;51.262;5.488;2022-07-04T02:46:59;5.88;;;3.28;;
26536;SDS011;14204;51.262;5.488;2022-07-04T02:49:25;3.67;;;2.70;;
26536;SDS011;14204;51.262;5.488;2022-07-04T02:51:51;3.17;;;2.90;;
26536;SDS011;14204;51.262;5.488;2022-07-04T02:54:16;4.32;;;3.13;;
26536;SDS011;14204;51.262;5.488;2022-07-04T02:56:42;3.90;;;3.10;;
26536;SDS011;14204;51.262;5.488;2022-07-04T02:59:08;5.75;;;3.33;;
26536;SDS011;14204;51.262;5.488;2022-07-04T03:01:33;4.00;;;3.60;;
26536;SDS011;14204;51.262;5.488;2022-07-04T03:03:59;4.97;;;3.55;;
26536;SDS011;14204;51.262;5.488;2022-07-04T03:06:25;3.95;;;3.65;;
26536;SDS011;14204;51.262;5.488;2022-07-04T03:08:51;7.65;;;3.90;;
26536;SDS011;14204;51.262;5.488;2022-07-04T03:11:17;6.28;;;4.22;;
26536;SDS011;14204;51.262;5.488;2022-07-04T03:13:43;6.53;;;3.80;;
26536;SDS011;14204;51.262;5.488;2022-07-04T03:16:09;4.57;;;3.47;;
26536;SDS011;14204;51.262;5.488;2022-07-04T03:18:35;6.15;;;4.15;;
26536;SDS011;14204;51.262;5.488;2022-07-04T03:21:01;5.47;;;4.22;;
26536;SDS011;14204;51.262;5.488;2022-07-04T03:23:29;5.57;;;4.25;;
26536;SDS011;14204;51.262;5.488;2022-07-04T03:25:58;7.03;;;3.85;;
26536;SDS011;14204;51.262;5.488;2022-07-04T03:28:25;6.03;;;4.10;;
26536;SDS011;14204;51.262;5.488;2022-07-04T03:30:51;5.05;;;3.90;;
26536;SDS011;14204;51.262;5.488;2022-07-04T03:33:17;7.47;;;4.38;;
26536;SDS011;14204;51.262;5.488;2022-07-04T03:35:43;4.82;;;3.80;;
26536;SDS011;14204;51.262;5.488;2022-07-04T03:38:09;3.97;;;3.58;;
26536;SDS011;14204;51.262;5.488;2022-07-04T03:40:35;4.97;;;3.53;;
26536;SDS011;14204;51.262;5.488;2022-07-04T03:43:01;5.32;;;4.38;;
26536;SDS011;14204;51.262;5.488;2022-07-04T03:45:28;7.93;;;4.00;;
26536;SDS011;14204;51.262;5.488;2022-07-04T03:47:54;4.75;;;3.78;;
26536;SDS011;14204;51.262;5.488;2022-07-04T03:50:21;4.22;;;2.85;;
26536;SDS011;14204;51.262;5.488;2022-07-04T03:52:47;4.82;;;3.00;;
26536;SDS011;14204;51.262;5.488;2022-07-04T03:55:13;4.65;;;3.50;;
26536;SDS011;14204;51.262;5.488;2022-07-04T03:57:38;5.72;;;2.97;;
26536;SDS011;14204;51.262;5.488;2022-07-04T04:00:04;3.42;;;3.05;;
26536;SDS011;14204;51.262;5.488;2022-07-04T04:02:32;4.45;;;3.35;;
26536;SDS011;14204;51.262;5.488;2022-07-04T04:04:58;4.65;;;2.47;;
26536;SDS011;14204;51.262;5.488;2022-07-04T04:07:42;4.20;;;3.15;;
26536;SDS011;14204;51.262;5.488;2022-07-04T04:10:09;4.05;;;3.10;;
26536;SDS011;14204;51.262;5.488;2022-07-04T04:12:35;4.18;;;3.42;;
26536;SDS011;14204;51.262;5.488;2022-07-04T04:15:01;4.78;;;2.92;;
26536;SDS011;14204;51.262;5.488;2022-07-04T04:17:27;3.50;;;2.67;;
26536;SDS011;14204;51.262;5.488;2022-07-04T04:19:53;4.00;;;3.05;;
26536;SDS011;14204;51.262;5.488;2022-07-04T04:22:19;3.30;;;3.00;;
26536;SDS011;14204;51.262;5.488;2022-07-04T04:24:44;5.28;;;3.47;;
26536;SDS011;14204;51.262;5.488;2022-07-04T04:27:10;3.40;;;3.10;;
26536;SDS011;14204;51.262;5.488;2022-07-04T04:29:35;4.43;;;3.55;;
26536;SDS011;14204;51.262;5.488;2022-07-04T04:32:01;10.80;;;3.47;;
26536;SDS011;14204;51.262;5.488;2022-07-04T04:34:27;6.85;;;3.40;;
26536;SDS011;14204;51.262;5.488;2022-07-04T04:36:53;4.25;;;3.83;;
26536;SDS011;14204;51.262;5.488;2022-07-04T04:39:18;3.65;;;3.35;;
26536;SDS011;14204;51.262;5.488;2022-07-04T04:41:44;6.13;;;3.30;;
26536;SDS011;14204;51.262;5.488;2022-07-04T04:44:09;3.40;;;3.03;;
26536;SDS011;14204;51.262;5.488;2022-07-04T04:46:35;5.55;;;3.15;;
26536;SDS011;14204;51.262;5.488;2022-07-04T04:49:00;4.78;;;2.97;;
26536;SDS011;14204;51.262;5.488;2022-07-04T04:51:26;6.90;;;3.58;;
26536;SDS011;14204;51.262;5.488;2022-07-04T04:53:52;4.40;;;3.10;;
26536;SDS011;14204;51.262;5.488;2022-07-04T04:56:17;3.28;;;2.83;;
26536;SDS011;14204;51.262;5.488;2022-07-04T04:58:43;8.45;;;3.15;;
26536;SDS011;14204;51.262;5.488;2022-07-04T05:01:09;7.53;;;3.05;;
26536;SDS011;14204;51.262;5.488;2022-07-04T05:03:34;4.85;;;3.05;;
26536;SDS011;14204;51.262;5.488;2022-07-04T05:06:00;3.75;;;3.45;;
26536;SDS011;14204;51.262;5.488;2022-07-04T05:08:25;7.47;;;4.20;;
26536;SDS011;14204;51.262;5.488;2022-07-04T05:10:52;6.03;;;4.55;;
26536;SDS011;14204;51.262;5.488;2022-07-04T05:13:18;6.88;;;4.20;;
26536;SDS011;14204;51.262;5.488;2022-07-04T05:15:44;5.78;;;4.38;;
26536;SDS011;14204;51.262;5.488;2022-07-04T05:18:11;5.93;;;4.53;;
26536;SDS011;14204;51.262;5.488;2022-07-04T05:20:38;10.02;;;3.60;;
26536;SDS011;14204;51.262;5.488;2022-07-04T05:23:04;7.90;;;3.88;;
26536;SDS011;14204;51.262;5.488;2022-07-04T05:25:30;6.47;;;3.08;;
26536;SDS011;14204;51.262;5.488;2022-07-04T05:27:56;5.65;;;3.20;;
26536;SDS011;14204;51.262;5.488;2022-07-04T05:30:21;7.90;;;3.40;;
26536;SDS011;14204;51.262;5.488;2022-07-04T05:32:47;4.57;;;3.60;;
26536;SDS011;14204;51.262;5.488;2022-07-04T05:35:12;13.30;;;3.70;;
26536;SDS011;14204;51.262;5.488;2022-07-04T05:37:38;6.57;;;4.07;;
26536;SDS011;14204;51.262;5.488;2022-07-04T05:40:04;9.30;;;4.38;;
26536;SDS011;14204;51.262;5.488;2022-07-04T05:42:30;7.97;;;4.32;;
26536;SDS011;14204;51.262;5.488;2022-07-04T05:44:56;9.13;;;4.35;;
26536;SDS011;14204;51.262;5.488;2022-07-04T05:47:21;6.78;;;4.72;;
26536;SDS011;14204;51.262;5.488;2022-07-04T05:49:49;8.80;;;4.80;;
26536;SDS011;14204;51.262;5.488;2022-07-04T05:52:15;7.82;;;5.22;;
26536;SDS011;14204;51.262;5.488;2022-07-04T05:54:41;6.97;;;5.22;;
26536;SDS011;14204;51.262;5.488;2022-07-04T05:57:07;8.15;;;4.72;;
26536;SDS011;14204;51.262;5.488;2022-07-04T05:59:32;9.80;;;5.25;;
26536;SDS011;14204;51.262;5.488;2022-07-04T06:01:58;7.63;;;4.65;;
26536;SDS011;14204;51.262;5.488;2022-07-04T06:04:24;9.00;;;4.90;;
26536;SDS011;14204;51.262;5.488;2022-07-04T06:06:50;7.35;;;4.63;;
26536;SDS011;14204;51.262;5.488;2022-07-04T06:09:15;8.45;;;4.65;;
26536;SDS011;14204;51.262;5.488;2022-07-04T06:11:41;7.03;;;4.00;;
26536;SDS011;14204;51.262;5.488;2022-07-04T06:14:07;12.80;;;4.38;;
26536;SDS011;14204;51.262;5.488;2022-07-04T06:16:32;8.15;;;3.97;;
26536;SDS011;14204;51.262;5.488;2022-07-04T06:18:58;6.88;;;4.07;;
26536;SDS011;14204;51.262;5.488;2022-07-04T06:21:24;7.72;;;3.75;;
26536;SDS011;14204;51.262;5.488;2022-07-04T06:23:50;8.77;;;4.35;;
26536;SDS011;14204;51.262;5.488;2022-07-04T06:26:15;6.60;;;2.92;;
26536;SDS011;14204;51.262;5.488;2022-07-04T06:28:41;7.15;;;4.30;;
26536;SDS011;14204;51.262;5.488;2022-07-04T06:31:07;6.50;;;3.67;;
26536;SDS011;14204;51.262;5.488;2022-07-04T06:33:32;8.35;;;3.63;;
26536;SDS011;14204;51.262;5.488;2022-07-04T06:36:18;9.20;;;3.53;;
26536;SDS011;14204;51.262;5.488;2022-07-04T06:38:43;6.38;;;2.95;;
26536;SDS011;14204;51.262;5.488;2022-07-04T06:41:09;6.97;;;2.80;;
26536;SDS011;14204;51.262;5.488;2022-07-04T06:43:36;8.75;;;3.03;;
26536;SDS011;14204;51.262;5.488;2022-07-04T06:46:01;6.22;;;3.15;;
26536;SDS011;14204;51.262;5.488;2022-07-04T06:48:27;7.28;;;2.53;;
26536;SDS011;14204;51.262;5.488;2022-07-04T06:50:53;5.38;;;2.30;;
26536;SDS011;14204;51.262;5.488;2022-07-04T06:53:18;7.18;;;2.53;;
26536;SDS011;14204;51.262;5.488;2022-07-04T06:55:44;4.78;;;2.40;;
26536;SDS011;14204;51.262;5.488;2022-07-04T06:58:10;6.72;;;2.10;;
26536;SDS011;14204;51.262;5.488;2022-07-04T07:00:37;5.32;;;2.08;;
26536;SDS011;14204;51.262;5.488;2022-07-04T07:03:04;5.95;;;2.53;;
26536;SDS011;14204;51.262;5.488;2022-07-04T07:05:30;5.65;;;1.80;;
26536;SDS011;14204;51.262;5.488;2022-07-04T07:07:56;4.85;;;1.60;;
26536;SDS011;14204;51.262;5.488;2022-07-04T07:10:21;5.45;;;2.13;;
26536;SDS011;14204;51.262;5.488;2022-07-04T07:12:47;6.07;;;1.92;;
26536;SDS011;14204;51.262;5.488;2022-07-04T07:15:13;3.60;;;1.70;;
26536;SDS011;14204;51.262;5.488;2022-07-04T07:17:41;5.32;;;2.05;;
26536;SDS011;14204;51.262;5.488;2022-07-04T07:20:07;5.70;;;1.30;;
26536;SDS011;14204;51.262;5.488;2022-07-04T07:22:33;6.32;;;1.20;;
26536;SDS011;14204;51.262;5.488;2022-07-04T07:24:59;6.32;;;1.48;;
26536;SDS011;14204;51.262;5.488;2022-07-04T07:27:24;3.80;;;1.20;;
26536;SDS011;14204;51.262;5.488;2022-07-04T07:29:50;5.35;;;1.50;;
26536;SDS011;14204;51.262;5.488;2022-07-04T07:32:16;5.50;;;1.38;;
26536;SDS011;14204;51.262;5.488;2022-07-04T07:34:42;5.97;;;1.30;;
26536;SDS011;14204;51.262;5.488;2022-07-04T07:37:08;6.13;;;1.70;;
26536;SDS011;14204;51.262;5.488;2022-07-04T07:39:33;5.72;;;1.60;;
26536;SDS011;14204;51.262;5.488;2022-07-04T07:41:59;4.53;;;1.30;;
26536;SDS011;14204;51.262;5.488;2022-07-04T07:44:25;3.95;;;1.25;;
26536;SDS011;14204;51.262;5.488;2022-07-04T07:46:51;6.55;;;1.83;;
26536;SDS011;14204;51.262;5.488;2022-07-04T07:49:16;4.70;;;1.10;;
26536;SDS011;14204;51.262;5.488;2022-07-04T07:51:43;7.18;;;1.48;;
26536;SDS011;14204;51.262;5.488;2022-07-04T07:54:08;6.47;;;1.40;;
26536;SDS011;14204;51.262;5.488;2022-07-04T07:56:34;2.50;;;1.25;;
26536;SDS011;14204;51.262;5.488;2022-07-04T07:59:00;7.25;;;1.10;;
26536;SDS011;14204;51.262;5.488;2022-07-04T08:01:25;5.90;;;1.45;;
26536;SDS011;14204;51.262;5.488;2022-07-04T08:03:51;2.90;;;0.77;;
26536;SDS011;14204;51.262;5.488;2022-07-04T08:06:35;5.45;;;1.30;;
26536;SDS011;14204;51.262;5.488;2022-07-04T08:09:01;4.75;;;1.55;;
26536;SDS011;14204;51.262;5.488;2022-07-04T08:11:27;3.38;;;1.02;;
26536;SDS011;14204;51.262;5.488;2022-07-04T08:13:53;3.10;;;0.90;;
26536;SDS011;14204;51.262;5.488;2022-07-04T08:16:18;3.17;;;1.02;;
26536;SDS011;14204;51.262;5.488;2022-07-04T08:18:44;4.18;;;1.40;;
26536;SDS011;14204;51.262;5.488;2022-07-04T08:21:10;3.80;;;1.08;;
26536;SDS011;14204;51.262;5.488;2022-07-04T08:23:36;3.30;;;1.00;;
26536;SDS011;14204;51.262;5.488;2022-07-04T08:26:02;6.18;;;1.35;;
26536;SDS011;14204;51.262;5.488;2022-07-04T08:28:29;2.85;;;0.88;;
26536;SDS011;14204;51.262;5.488;2022-07-04T08:30:55;3.20;;;0.93;;
26536;SDS011;14204;51.262;5.488;2022-07-04T08:33:24;2.63;;;0.77;;
26536;SDS011;14204;51.262;5.488;2022-07-04T08:35:50;3.10;;;1.13;;
26536;SDS011;14204;51.262;5.488;2022-07-04T08:38:18;3.15;;;1.25;;
26536;SDS011;14204;51.262;5.488;2022-07-04T08:40:44;4.80;;;1.27;;
26536;SDS011;14204;51.262;5.488;2022-07-04T08:43:12;4.78;;;0.88;;
26536;SDS011;14204;51.262;5.488;2022-07-04T08:45:39;5.10;;;1.10;;
26536;SDS011;14204;51.262;5.488;2022-07-04T08:48:06;6.82;;;1.88;;
26536;SDS011;14204;51.262;5.488;2022-07-04T08:53:06;4.47;;;1.27;;
26536;SDS011;14204;51.262;5.488;2022-07-04T08:55:35;2.53;;;0.70;;
26536;SDS011;14204;51.262;5.488;2022-07-04T08:58:20;2.95;;;0.80;;
26536;SDS011;14204;51.262;5.488;2022-07-04T09:00:57;3.22;;;1.27;;
26536;SDS011;14204;51.262;5.488;2022-07-04T09:03:28;2.80;;;1.10;;
26536;SDS011;14204;51.262;5.488;2022-07-04T09:05:54;6.13;;;1.23;;
26536;SDS011;14204;51.262;5.488;2022-07-04T09:08:20;6.10;;;1.38;;
26536;SDS011;14204;51.262;5.488;2022-07-04T09:10:47;4.35;;;0.88;;
26536;SDS011;14204;51.262;5.488;2022-07-04T09:13:13;2.60;;;1.08;;
26536;SDS011;14204;51.262;5.488;2022-07-04T09:15:43;4.05;;;0.90;;
26536;SDS011;14204;51.262;5.488;2022-07-04T09:20:46;2.55;;;1.10;;
26536;SDS011;14204;51.262;5.488;2022-07-04T09:23:25;2.78;;;1.02;;
26536;SDS011;14204;51.262;5.488;2022-07-04T09:26:09;3.22;;;1.00;;
26536;SDS011;14204;51.262;5.488;2022-07-04T09:28:40;3.58;;;0.90;;
26536;SDS011;14204;51.262;5.488;2022-07-04T09:31:14;3.67;;;0.98;;
26536;SDS011;14204;51.262;5.488;2022-07-04T09:36:39;4.72;;;1.13;;
26536;SDS011;14204;51.262;5.488;2022-07-04T09:44:20;6.95;;;1.13;;
26536;SDS011;14204;51.262;5.488;2022-07-04T09:46:46;1.92;;;0.80;;
26536;SDS011;14204;51.262;5.488;2022-07-04T09:49:12;3.45;;;1.08;;
26536;SDS011;14204;51.262;5.488;2022-07-04T09:51:42;1.40;;;0.70;;
26536;SDS011;14204;51.262;5.488;2022-07-04T09:56:39;2.63;;;0.80;;
26536;SDS011;14204;51.262;5.488;2022-07-04T09:59:06;3.08;;;0.88;;
26536;SDS011;14204;51.262;5.488;2022-07-04T10:01:32;2.78;;;0.93;;
26536;SDS011;14204;51.262;5.488;2022-07-04T10:03:58;3.13;;;1.13;;
26536;SDS011;14204;51.262;5.488;2022-07-04T10:06:24;4.18;;;1.05;;
26536;SDS011;14204;51.262;5.488;2022-07-04T10:08:50;2.00;;;0.77;;
26536;SDS011;14204;51.262;5.488;2022-07-04T10:11:16;3.00;;;0.70;;
26536;SDS011;14204;51.262;5.488;2022-07-04T10:13:43;4.25;;;1.00;;
26536;SDS011;14204;51.262;5.488;2022-07-04T10:16:10;3.83;;;1.13;;
26536;SDS011;14204;51.262;5.488;2022-07-04T10:18:36;5.28;;;1.05;;
26536;SDS011;14204;51.262;5.488;2022-07-04T10:21:02;7.57;;;0.95;;
26536;SDS011;14204;51.262;5.488;2022-07-04T10:23:28;2.45;;;0.73;;
26536;SDS011;14204;51.262;5.488;2022-07-04T10:25:56;3.03;;;0.80;;
26536;SDS011;14204;51.262;5.488;2022-07-04T10:28:23;6.07;;;0.90;;
26536;SDS011;14204;51.262;5.488;2022-07-04T10:30:50;3.83;;;1.00;;
26536;SDS011;14204;51.262;5.488;2022-07-04T10:33:22;2.05;;;1.00;;
26536;SDS011;14204;51.262;5.488;2022-07-04T10:38:28;4.40;;;0.90;;
26536;SDS011;14204;51.262;5.488;2022-07-04T10:41:08;2.08;;;0.70;;
26536;SDS011;14204;51.262;5.488;2022-07-04T10:54:14;4.43;;;1.17;;
26536;SDS011;14204;51.262;5.488;2022-07-04T10:59:44;2.15;;;0.70;;
26536;SDS011;14204;51.262;5.488;2022-07-04T11:05:06;2.13;;;1.00;;
26536;SDS011;14204;51.262;5.488;2022-07-04T11:17:50;3.40;;;1.00;;
26536;SDS011;14204;51.262;5.488;2022-07-04T11:20:17;3.75;;;1.05;;
26536;SDS011;14204;51.262;5.488;2022-07-04T11:22:43;0.82;;;0.60;;
26536;SDS011;14204;51.262;5.488;2022-07-04T11:25:09;3.40;;;0.95;;
26536;SDS011;14204;51.262;5.488;2022-07-04T11:27:37;3.10;;;0.77;;
26536;SDS011;14204;51.262;5.488;2022-07-04T11:30:03;2.35;;;1.08;;
26536;SDS011;14204;51.262;5.488;2022-07-04T11:32:29;1.35;;;0.82;;
26536;SDS011;14204;51.262;5.488;2022-07-04T11:34:56;3.50;;;0.80;;
26536;SDS011;14204;51.262;5.488;2022-07-04T11:37:22;3.13;;;0.95;;
26536;SDS011;14204;51.262;5.488;2022-07-04T11:39:51;2.80;;;1.00;;
26536;SDS011;14204;51.262;5.488;2022-07-04T11:42:18;3.38;;;0.82;;
26536;SDS011;14204;51.262;5.488;2022-07-04T11:45:02;3.63;;;1.00;;
26536;SDS011;14204;51.262;5.488;2022-07-04T11:49:59;1.77;;;0.98;;
26536;SDS011;14204;51.262;5.488;2022-07-04T11:52:25;2.42;;;0.95;;
26536;SDS011;14204;51.262;5.488;2022-07-04T11:54:53;1.98;;;0.82;;
26536;SDS011;14204;51.262;5.488;2022-07-04T11:57:25;2.45;;;0.70;;
26536;SDS011;14204;51.262;5.488;2022-07-04T12:02:26;1.95;;;0.98;;
26536;SDS011;14204;51.262;5.488;2022-07-04T12:04:53;2.55;;;0.95;;
26536;SDS011;14204;51.262;5.488;2022-07-04T12:07:20;3.65;;;0.82;;
26536;SDS011;14204;51.262;5.488;2022-07-04T12:09:47;2.78;;;1.15;;
26536;SDS011;14204;51.262;5.488;2022-07-04T12:12:13;1.35;;;0.98;;
26536;SDS011;14204;51.262;5.488;2022-07-04T12:15:02;2.13;;;0.75;;
26536;SDS011;14204;51.262;5.488;2022-07-04T12:20:11;2.80;;;0.90;;
26536;SDS011;14204;51.262;5.488;2022-07-04T12:22:55;3.40;;;0.90;;
26536;SDS011;14204;51.262;5.488;2022-07-04T12:25:29;3.20;;;1.23;;
26536;SDS011;14204;51.262;5.488;2022-07-04T12:28:01;2.17;;;0.70;;
26536;SDS011;14204;51.262;5.488;2022-07-04T12:30:35;3.33;;;1.23;;
26536;SDS011;14204;51.262;5.488;2022-07-04T12:33:06;1.63;;;0.98;;
26536;SDS011;14204;51.262;5.488;2022-07-04T12:35:33;0.63;;;0.63;;
26536;SDS011;14204;51.262;5.488;2022-07-04T12:38:09;6.07;;;1.10;;
26536;SDS011;14204;51.262;5.488;2022-07-04T12:46:06;4.05;;;1.27;;
26536;SDS011;14204;51.262;5.488;2022-07-04T12:48:36;3.33;;;0.90;;
26536;SDS011;14204;51.262;5.488;2022-07-04T12:51:09;2.03;;;1.08;;
26536;SDS011;14204;51.262;5.488;2022-07-04T12:53:36;1.35;;;1.00;;
26536;SDS011;14204;51.262;5.488;2022-07-04T12:56:02;3.67;;;0.95;;
26536;SDS011;14204;51.262;5.488;2022-07-04T12:58:28;3.90;;;0.98;;
26536;SDS011;14204;51.262;5.488;2022-07-04T13:00:54;1.75;;;1.00;;
26536;SDS011;14204;51.262;5.488;2022-07-04T13:03:20;1.92;;;0.80;;
26536;SDS011;14204;51.262;5.488;2022-07-04T13:05:45;2.38;;;1.10;;
26536;SDS011;14204;51.262;5.488;2022-07-04T13:08:11;2.13;;;0.80;;
26536;SDS011;14204;51.262;5.488;2022-07-04T13:10:37;2.70;;;1.20;;
26536;SDS011;14204;51.262;5.488;2022-07-04T13:13:02;3.10;;;1.23;;
26536;SDS011;14204;51.262;5.488;2022-07-04T13:15:28;2.17;;;1.20;;
26536;SDS011;14204;51.262;5.488;2022-07-04T13:17:54;4.45;;;1.00;;
26536;SDS011;14204;51.262;5.488;2022-07-04T13:20:20;3.85;;;1.23;;
26536;SDS011;14204;51.262;5.488;2022-07-04T13:22:45;1.30;;;1.00;;
26536;SDS011;14204;51.262;5.488;2022-07-04T13:25:11;3.33;;;1.48;;
26536;SDS011;14204;51.262;5.488;2022-07-04T13:27:37;3.35;;;1.30;;
26536;SDS011;14204;51.262;5.488;2022-07-04T13:30:02;3.60;;;1.10;;
26536;SDS011;14204;51.262;5.488;2022-07-04T13:32:28;1.20;;;1.10;;
26536;SDS011;14204;51.262;5.488;2022-07-04T13:34:54;7.45;;;1.48;;
26536;SDS011;14204;51.262;5.488;2022-07-04T13:37:20;3.00;;;1.10;;
26536;SDS011;14204;51.262;5.488;2022-07-04T13:39:45;3.85;;;1.30;;
26536;SDS011;14204;51.262;5.488;2022-07-04T13:42:11;2.88;;;1.42;;
26536;SDS011;14204;51.262;5.488;2022-07-04T13:44:37;6.93;;;1.08;;
26536;SDS011;14204;51.262;5.488;2022-07-04T13:47:03;1.48;;;0.80;;
26536;SDS011;14204;51.262;5.488;2022-07-04T13:49:28;7.63;;;1.33;;
26536;SDS011;14204;51.262;5.488;2022-07-04T13:51:54;3.50;;;1.20;;
26536;SDS011;14204;51.262;5.488;2022-07-04T13:54:20;3.28;;;1.27;;
26536;SDS011;14204;51.262;5.488;2022-07-04T13:56:45;3.00;;;1.10;;
26536;SDS011;14204;51.262;5.488;2022-07-04T13:59:11;2.47;;;0.90;;
26536;SDS011;14204;51.262;5.488;2022-07-04T14:01:37;3.95;;;1.30;;
26536;SDS011;14204;51.262;5.488;2022-07-04T14:04:04;2.25;;;1.20;;
26536;SDS011;14204;51.262;5.488;2022-07-04T14:06:29;1.17;;;1.08;;
26536;SDS011;14204;51.262;5.488;2022-07-04T14:08:56;3.25;;;1.15;;
26536;SDS011;14204;51.262;5.488;2022-07-04T14:11:21;4.00;;;1.38;;
26536;SDS011;14204;51.262;5.488;2022-07-04T14:13:47;3.22;;;1.25;;
26536;SDS011;14204;51.262;5.488;2022-07-04T14:16:14;2.47;;;1.25;;
26536;SDS011;14204;51.262;5.488;2022-07-04T14:18:39;3.70;;;1.48;;
26536;SDS011;14204;51.262;5.488;2022-07-04T14:21:05;2.10;;;1.00;;
26536;SDS011;14204;51.262;5.488;2022-07-04T14:23:31;3.03;;;1.40;;
26536;SDS011;14204;51.262;5.488;2022-07-04T14:26:06;2.75;;;1.20;;
26536;SDS011;14204;51.262;5.488;2022-07-04T14:28:37;2.85;;;1.60;;
26536;SDS011;14204;51.262;5.488;2022-07-04T14:31:03;4.75;;;1.40;;
26536;SDS011;14204;51.262;5.488;2022-07-04T14:33:29;3.25;;;1.05;;
26536;SDS011;14204;51.262;5.488;2022-07-04T14:35:55;1.67;;;1.20;;
26536;SDS011;14204;51.262;5.488;2022-07-04T14:38:21;2.97;;;1.08;;
26536;SDS011;14204;51.262;5.488;2022-07-04T14:40:46;3.20;;;1.00;;
26536;SDS011;14204;51.262;5.488;2022-07-04T14:43:14;2.80;;;1.10;;
26536;SDS011;14204;51.262;5.488;2022-07-04T14:45:42;3.75;;;1.35;;
26536;SDS011;14204;51.262;5.488;2022-07-04T14:48:09;2.20;;;1.00;;
26536;SDS011;14204;51.262;5.488;2022-07-04T14:50:35;3.55;;;1.23;;
26536;SDS011;14204;51.262;5.488;2022-07-04T14:53:00;2.45;;;1.05;;
26536;SDS011;14204;51.262;5.488;2022-07-04T14:55:26;2.67;;;1.30;;
26536;SDS011;14204;51.262;5.488;2022-07-04T14:57:52;2.92;;;1.23;;
26536;SDS011;14204;51.262;5.488;2022-07-04T15:00:17;3.30;;;1.20;;
26536;SDS011;14204;51.262;5.488;2022-07-04T15:02:43;1.80;;;1.48;;
26536;SDS011;14204;51.262;5.488;2022-07-04T15:05:11;2.08;;;1.40;;
26536;SDS011;14204;51.262;5.488;2022-07-04T15:07:37;3.50;;;1.50;;
26536;SDS011;14204;51.262;5.488;2022-07-04T15:10:04;2.53;;;1.33;;
26536;SDS011;14204;51.262;5.488;2022-07-04T15:12:32;2.70;;;1.55;;
26536;SDS011;14204;51.262;5.488;2022-07-04T15:14:58;2.30;;;1.15;;
26536;SDS011;14204;51.262;5.488;2022-07-04T15:17:24;3.70;;;1.27;;
26536;SDS011;14204;51.262;5.488;2022-07-04T15:19:50;2.63;;;1.88;;
26536;SDS011;14204;51.262;5.488;2022-07-04T15:22:34;5.28;;;1.85;;
26536;SDS011;14204;51.262;5.488;2022-07-04T15:25:18;4.90;;;1.70;;
26536;SDS011;14204;51.262;5.488;2022-07-04T15:27:43;3.95;;;1.52;;
26536;SDS011;14204;51.262;5.488;2022-07-04T15:30:09;4.20;;;2.03;;
26536;SDS011;14204;51.262;5.488;2022-07-04T15:32:35;3.67;;;1.75;;
26536;SDS011;14204;51.262;5.488;2022-07-04T15:35:01;4.63;;;1.80;;
26536;SDS011;14204;51.262;5.488;2022-07-04T15:37:27;2.97;;;1.70;;
26536;SDS011;14204;51.262;5.488;2022-07-04T15:39:52;3.20;;;1.33;;
26536;SDS011;14204;51.262;5.488;2022-07-04T15:42:18;5.95;;;1.90;;
26536;SDS011;14204;51.262;5.488;2022-07-04T15:44:44;2.03;;;1.83;;